PTCMS SBPS-SBTE
Flight info
| Callsign | PTCMS |
|---|---|
| Flight time | 1h 54m |
| Altitude | FL350 |
| Route | ZUMBA PAPAL MUGUR KOTRO ORUSU RONCA |
| Aircraft | A320/M-SDE3FGHIRWY/LB1 |
Departure
| Time | 2026-05-05 04:17 |
|---|---|
| Airport | Porto Seguro International Airport (SBPS) |
Arrival
| Time | 2026-05-05 06:12 |
|---|---|
| Airport | Senador Petrônio Portela Airport (SBTE) |
| Time | Latitude | Longitude | Altitude | Speed | Heading |
|---|---|---|---|---|---|
| 2026-05-05 04:09 | -16.44076 | -39.08128 | 160 ft | 0 kts | 164° |
| 2026-05-05 04:10 | -16.44068 | -39.08130 | 160 ft | 2 kts | 164° |
| 2026-05-05 04:10 | -16.44055 | -39.08134 | 160 ft | 2 kts | 187° |
| 2026-05-05 04:10 | -16.44044 | -39.08127 | 160 ft | 2 kts | 265° |
| 2026-05-05 04:11 | -16.44044 | -39.08120 | 160 ft | 0 kts | 287° |
| 2026-05-05 04:11 | -16.44044 | -39.08121 | 160 ft | 1 kts | 287° |
| 2026-05-05 04:11 | -16.44036 | -39.08158 | 160 ft | 6 kts | 279° |
| 2026-05-05 04:11 | -16.44037 | -39.08193 | 160 ft | 4 kts | 256° |
| 2026-05-05 04:12 | -16.44048 | -39.08228 | 160 ft | 8 kts | 251° |
| 2026-05-05 04:12 | -16.44051 | -39.08280 | 160 ft | 7 kts | 300° |
| 2026-05-05 04:12 | -16.44015 | -39.08297 | 160 ft | 5 kts | 342° |
| 2026-05-05 04:12 | -16.43983 | -39.08305 | 160 ft | 5 kts | 348° |
| 2026-05-05 04:13 | -16.43951 | -39.08312 | 159 ft | 5 kts | 351° |
| 2026-05-05 04:13 | -16.43911 | -39.08291 | 159 ft | 7 kts | 55° |
| 2026-05-05 04:13 | -16.43891 | -39.08237 | 159 ft | 13 kts | 74° |
| 2026-05-05 04:13 | -16.43856 | -39.08103 | 160 ft | 22 kts | 72° |
| 2026-05-05 04:14 | -16.43814 | -39.07946 | 160 ft | 23 kts | 75° |
| 2026-05-05 04:14 | -16.43769 | -39.07781 | 162 ft | 24 kts | 75° |
| 2026-05-05 04:14 | -16.43723 | -39.07615 | 162 ft | 24 kts | 73° |
| 2026-05-05 04:14 | -16.43685 | -39.07467 | 163 ft | 17 kts | 81° |
| 2026-05-05 04:15 | -16.43663 | -39.07375 | 163 ft | 10 kts | 72° |
| 2026-05-05 04:15 | -16.43640 | -39.07307 | 162 ft | 10 kts | 74° |
| 2026-05-05 04:15 | -16.43647 | -39.07239 | 161 ft | 9 kts | 111° |
| 2026-05-05 04:15 | -16.43622 | -39.07203 | 160 ft | 7 kts | 336° |
| 2026-05-05 04:16 | -16.43619 | -39.07239 | 161 ft | 4 kts | 254° |
| 2026-05-05 04:16 | -16.43625 | -39.07257 | 161 ft | 1 kts | 250° |
| 2026-05-05 04:16 | -16.43627 | -39.07261 | 161 ft | 0 kts | 250° |
| 2026-05-05 04:17 | -16.43653 | -39.07349 | 162 ft | 37 kts | 254° |
| 2026-05-05 04:17 | -16.43806 | -39.07924 | 160 ft | 126 kts | 254° |
| 2026-05-05 04:17 | -16.44111 | -39.08974 | 496 ft | 161 kts | 252° |
| 2026-05-05 04:17 | -16.44414 | -39.10137 | 1204 ft | 173 kts | 260° |
| 2026-05-05 04:18 | -16.44597 | -39.11420 | 1909 ft | 185 kts | 259° |
| 2026-05-05 04:18 | -16.44597 | -39.12782 | 2532 ft | 194 kts | 282° |
| 2026-05-05 04:18 | -16.44018 | -39.14068 | 3109 ft | 205 kts | 308° |
| 2026-05-05 04:18 | -16.42778 | -39.14915 | 3538 ft | 230 kts | 344° |
| 2026-05-05 04:19 | -16.41081 | -39.15139 | 3790 ft | 264 kts | 355° |
| 2026-05-05 04:19 | -16.39126 | -39.15149 | 4022 ft | 297 kts | 357° |
| 2026-05-05 04:19 | -16.37071 | -39.15511 | 4820 ft | 298 kts | 341° |
| 2026-05-05 04:19 | -16.35194 | -39.16224 | 6255 ft | 278 kts | 335° |
| 2026-05-05 04:20 | -16.33457 | -39.17015 | 7402 ft | 272 kts | 333° |
| 2026-05-05 04:20 | -16.31724 | -39.17833 | 8277 ft | 275 kts | 333° |
| 2026-05-05 04:20 | -16.29962 | -39.18643 | 9099 ft | 279 kts | 334° |
| 2026-05-05 04:20 | -16.28167 | -39.19435 | 9909 ft | 283 kts | 335° |
| 2026-05-05 04:21 | -16.26308 | -39.20226 | 10449 ft | 298 kts | 335° |
| 2026-05-05 04:21 | -16.24331 | -39.21044 | 10879 ft | 315 kts | 336° |
| 2026-05-05 04:21 | -16.22250 | -39.21887 | 11417 ft | 326 kts | 336° |
| 2026-05-05 04:21 | -16.20126 | -39.22740 | 12146 ft | 330 kts | 336° |
| 2026-05-05 04:22 | -16.17971 | -39.23602 | 12882 ft | 334 kts | 336° |
| 2026-05-05 04:22 | -16.15798 | -39.24472 | 13595 ft | 337 kts | 336° |
| 2026-05-05 04:22 | -16.13606 | -39.25349 | 14288 ft | 340 kts | 336° |
| 2026-05-05 04:22 | -16.11390 | -39.26237 | 14960 ft | 344 kts | 336° |
| 2026-05-05 04:23 | -16.09153 | -39.27134 | 15617 ft | 347 kts | 336° |
| 2026-05-05 04:23 | -16.06890 | -39.28038 | 16260 ft | 350 kts | 336° |
| 2026-05-05 04:23 | -16.04609 | -39.28953 | 16890 ft | 354 kts | 336° |
| 2026-05-05 04:23 | -16.02312 | -39.29876 | 17493 ft | 357 kts | 336° |
| 2026-05-05 04:24 | -15.99985 | -39.30808 | 18093 ft | 360 kts | 336° |
| 2026-05-05 04:24 | -15.97641 | -39.31745 | 18679 ft | 363 kts | 336° |
| 2026-05-05 04:24 | -15.95283 | -39.32692 | 19262 ft | 366 kts | 336° |
| 2026-05-05 04:25 | -15.90501 | -39.34620 | 20379 ft | 372 kts | 335° |
| 2026-05-05 04:25 | -15.88075 | -39.35595 | 20937 ft | 376 kts | 335° |
| 2026-05-05 04:25 | -15.85632 | -39.36577 | 21467 ft | 379 kts | 335° |
| 2026-05-05 04:25 | -15.83174 | -39.37562 | 21995 ft | 382 kts | 336° |
| 2026-05-05 04:26 | -15.80688 | -39.38556 | 22507 ft | 385 kts | 335° |
| 2026-05-05 04:26 | -15.78192 | -39.39556 | 23006 ft | 387 kts | 335° |
| 2026-05-05 04:26 | -15.75672 | -39.40563 | 23495 ft | 390 kts | 335° |
| 2026-05-05 04:26 | -15.73131 | -39.41578 | 23968 ft | 393 kts | 335° |
| 2026-05-05 04:27 | -15.70574 | -39.42598 | 24425 ft | 396 kts | 335° |
| 2026-05-05 04:27 | -15.67997 | -39.43620 | 24867 ft | 399 kts | 336° |
| 2026-05-05 04:27 | -15.65400 | -39.44626 | 25294 ft | 401 kts | 336° |
| 2026-05-05 04:27 | -15.62773 | -39.45618 | 25703 ft | 404 kts | 336° |
| 2026-05-05 04:28 | -15.60122 | -39.46603 | 26101 ft | 407 kts | 337° |
| 2026-05-05 04:28 | -15.57453 | -39.47587 | 26487 ft | 409 kts | 337° |
| 2026-05-05 04:28 | -15.54772 | -39.48576 | 26851 ft | 411 kts | 337° |
| 2026-05-05 04:28 | -15.52072 | -39.49576 | 27229 ft | 414 kts | 337° |
| 2026-05-05 04:29 | -15.49363 | -39.50582 | 27593 ft | 416 kts | 336° |
| 2026-05-05 04:29 | -15.46639 | -39.51598 | 27943 ft | 418 kts | 336° |
| 2026-05-05 04:29 | -15.43907 | -39.52623 | 28285 ft | 420 kts | 336° |
| 2026-05-05 04:29 | -15.41157 | -39.53656 | 28610 ft | 422 kts | 336° |
| 2026-05-05 04:30 | -15.38392 | -39.54691 | 28930 ft | 424 kts | 336° |
| 2026-05-05 04:30 | -15.35614 | -39.55726 | 29242 ft | 426 kts | 336° |
| 2026-05-05 04:30 | -15.32821 | -39.56760 | 29546 ft | 428 kts | 336° |
| 2026-05-05 04:30 | -15.30016 | -39.57804 | 29856 ft | 430 kts | 336° |
| 2026-05-05 04:31 | -15.27200 | -39.58858 | 30150 ft | 432 kts | 336° |
| 2026-05-05 04:31 | -15.24370 | -39.59916 | 30431 ft | 434 kts | 336° |
| 2026-05-05 04:31 | -15.21532 | -39.60974 | 30694 ft | 436 kts | 336° |
| 2026-05-05 04:31 | -15.18677 | -39.62036 | 30940 ft | 437 kts | 336° |
| 2026-05-05 04:32 | -15.15813 | -39.63105 | 31189 ft | 439 kts | 336° |
| 2026-05-05 04:32 | -15.12947 | -39.64175 | 31461 ft | 440 kts | 336° |
| 2026-05-05 04:32 | -15.10071 | -39.65241 | 31805 ft | 439 kts | 336° |
| 2026-05-05 04:32 | -15.07209 | -39.66298 | 32149 ft | 438 kts | 336° |
| 2026-05-05 04:33 | -15.04347 | -39.67355 | 32486 ft | 437 kts | 336° |
| 2026-05-05 04:33 | -15.01489 | -39.68413 | 32800 ft | 436 kts | 336° |
| 2026-05-05 04:33 | -14.98647 | -39.69471 | 33107 ft | 435 kts | 336° |
| 2026-05-05 04:33 | -14.95806 | -39.70528 | 33421 ft | 435 kts | 336° |
| 2026-05-05 04:34 | -14.92968 | -39.71587 | 33731 ft | 435 kts | 336° |
| 2026-05-05 04:34 | -14.87370 | -39.73672 | 33840 ft | 419 kts | 336° |
| 2026-05-05 04:35 | -14.81899 | -39.75704 | 33838 ft | 419 kts | 336° |
| 2026-05-05 04:35 | -14.76435 | -39.77734 | 33838 ft | 419 kts | 336° |
| 2026-05-05 04:36 | -14.70962 | -39.79757 | 33838 ft | 419 kts | 336° |
| 2026-05-05 04:36 | -14.65489 | -39.81780 | 33838 ft | 419 kts | 336° |
| 2026-05-05 04:37 | -14.60022 | -39.83811 | 33838 ft | 419 kts | 336° |
| 2026-05-05 04:37 | -14.54555 | -39.85843 | 33842 ft | 419 kts | 336° |
| 2026-05-05 04:38 | -14.49079 | -39.87862 | 33844 ft | 419 kts | 336° |
| 2026-05-05 04:38 | -14.43603 | -39.89878 | 33847 ft | 419 kts | 336° |
| 2026-05-05 04:39 | -14.38131 | -39.91901 | 33851 ft | 419 kts | 336° |
| 2026-05-05 04:39 | -14.32660 | -39.93923 | 33854 ft | 419 kts | 336° |
| 2026-05-05 04:40 | -14.27188 | -39.95945 | 33854 ft | 418 kts | 336° |
| 2026-05-05 04:40 | -14.21715 | -39.97964 | 33854 ft | 418 kts | 336° |
| 2026-05-05 04:41 | -14.16249 | -39.99983 | 33852 ft | 418 kts | 336° |
| 2026-05-05 04:41 | -14.10783 | -40.02001 | 33850 ft | 418 kts | 336° |
| 2026-05-05 04:42 | -14.05318 | -40.04016 | 33845 ft | 418 kts | 336° |
| 2026-05-05 04:42 | -13.99848 | -40.06028 | 33845 ft | 418 kts | 336° |
| 2026-05-05 04:43 | -13.94373 | -40.08039 | 33844 ft | 418 kts | 336° |
| 2026-05-05 04:43 | -13.88907 | -40.10051 | 33841 ft | 418 kts | 336° |
| 2026-05-05 04:44 | -13.83439 | -40.12058 | 33845 ft | 418 kts | 336° |
| 2026-05-05 04:44 | -13.77972 | -40.14066 | 33850 ft | 418 kts | 336° |
| 2026-05-05 04:45 | -13.72502 | -40.16076 | 33850 ft | 418 kts | 336° |
| 2026-05-05 04:45 | -13.67040 | -40.18084 | 33848 ft | 418 kts | 336° |
| 2026-05-05 04:46 | -13.61574 | -40.20093 | 33847 ft | 418 kts | 336° |
| 2026-05-05 04:46 | -13.56106 | -40.22100 | 33849 ft | 418 kts | 336° |
| 2026-05-05 04:47 | -13.50638 | -40.24104 | 33845 ft | 418 kts | 336° |
| 2026-05-05 04:47 | -13.45173 | -40.26105 | 33841 ft | 418 kts | 336° |
| 2026-05-05 04:48 | -13.39705 | -40.28104 | 33843 ft | 418 kts | 336° |
| 2026-05-05 04:48 | -13.34241 | -40.30106 | 33845 ft | 418 kts | 336° |
| 2026-05-05 04:49 | -13.28773 | -40.32102 | 33846 ft | 418 kts | 336° |
| 2026-05-05 04:49 | -13.23307 | -40.34097 | 33847 ft | 418 kts | 336° |
| 2026-05-05 04:50 | -13.17841 | -40.36096 | 33845 ft | 418 kts | 336° |
| 2026-05-05 04:50 | -13.12380 | -40.38095 | 33843 ft | 418 kts | 336° |
| 2026-05-05 04:51 | -13.06916 | -40.40092 | 33840 ft | 418 kts | 336° |
| 2026-05-05 04:51 | -13.01454 | -40.42081 | 33839 ft | 418 kts | 336° |
| 2026-05-05 04:52 | -12.95994 | -40.44076 | 33837 ft | 418 kts | 336° |
| 2026-05-05 04:52 | -12.90531 | -40.46073 | 33836 ft | 418 kts | 336° |
| 2026-05-05 04:53 | -12.85067 | -40.48060 | 33837 ft | 418 kts | 336° |
| 2026-05-05 04:53 | -12.79600 | -40.50047 | 33834 ft | 417 kts | 336° |
| 2026-05-05 04:54 | -12.74137 | -40.52038 | 33834 ft | 418 kts | 336° |
| 2026-05-05 04:54 | -12.68672 | -40.54026 | 33840 ft | 418 kts | 336° |
| 2026-05-05 04:55 | -12.63209 | -40.56014 | 33845 ft | 417 kts | 336° |
| 2026-05-05 04:55 | -12.57747 | -40.58006 | 33844 ft | 417 kts | 336° |
| 2026-05-05 04:56 | -12.52283 | -40.59996 | 33842 ft | 417 kts | 336° |
| 2026-05-05 04:56 | -12.46820 | -40.61976 | 33840 ft | 417 kts | 336° |
| 2026-05-05 04:57 | -12.41361 | -40.63962 | 33841 ft | 417 kts | 336° |
| 2026-05-05 04:57 | -12.35894 | -40.65938 | 33841 ft | 417 kts | 336° |
| 2026-05-05 04:58 | -12.30433 | -40.67920 | 33840 ft | 417 kts | 336° |
| 2026-05-05 04:58 | -12.24971 | -40.69904 | 33840 ft | 417 kts | 336° |
| 2026-05-05 04:59 | -12.19509 | -40.71889 | 33845 ft | 418 kts | 336° |
| 2026-05-05 04:59 | -12.14047 | -40.73869 | 33848 ft | 417 kts | 336° |
| 2026-05-05 05:00 | -12.08582 | -40.75843 | 33846 ft | 417 kts | 336° |
| 2026-05-05 05:00 | -12.03116 | -40.77817 | 33850 ft | 417 kts | 336° |
| 2026-05-05 05:01 | -11.97657 | -40.79791 | 33848 ft | 417 kts | 336° |
| 2026-05-05 05:01 | -11.92196 | -40.81762 | 33846 ft | 417 kts | 336° |
| 2026-05-05 05:02 | -11.86738 | -40.83733 | 33841 ft | 417 kts | 336° |
| 2026-05-05 05:02 | -11.81281 | -40.85712 | 33840 ft | 417 kts | 336° |
| 2026-05-05 05:03 | -11.75821 | -40.87685 | 33838 ft | 417 kts | 336° |
| 2026-05-05 05:03 | -11.70363 | -40.89657 | 33837 ft | 417 kts | 336° |
| 2026-05-05 05:04 | -11.64903 | -40.91633 | 33841 ft | 417 kts | 336° |
| 2026-05-05 05:04 | -11.59447 | -40.93605 | 33838 ft | 417 kts | 336° |
| 2026-05-05 05:05 | -11.53990 | -40.95578 | 33836 ft | 417 kts | 336° |
| 2026-05-05 05:05 | -11.48530 | -40.97542 | 33836 ft | 417 kts | 336° |
| 2026-05-05 05:06 | -11.43069 | -40.99502 | 33835 ft | 417 kts | 336° |
| 2026-05-05 05:06 | -11.37611 | -41.01464 | 33834 ft | 417 kts | 336° |
| 2026-05-05 05:07 | -11.32155 | -41.03435 | 33836 ft | 417 kts | 336° |
| 2026-05-05 05:07 | -11.26701 | -41.05408 | 33834 ft | 417 kts | 336° |
| 2026-05-05 05:08 | -11.21248 | -41.07372 | 33834 ft | 417 kts | 336° |
| 2026-05-05 05:08 | -11.15788 | -41.09328 | 33836 ft | 417 kts | 336° |
| 2026-05-05 05:09 | -11.10331 | -41.11290 | 33835 ft | 417 kts | 336° |
| 2026-05-05 05:09 | -11.04872 | -41.13249 | 33842 ft | 417 kts | 336° |
| 2026-05-05 05:10 | -10.99413 | -41.15212 | 33843 ft | 417 kts | 336° |
| 2026-05-05 05:10 | -10.93956 | -41.17169 | 33841 ft | 417 kts | 336° |
| 2026-05-05 05:11 | -10.88498 | -41.19127 | 33841 ft | 417 kts | 336° |
| 2026-05-05 05:11 | -10.83041 | -41.21088 | 33842 ft | 417 kts | 336° |
| 2026-05-05 05:12 | -10.77589 | -41.23040 | 33845 ft | 417 kts | 336° |
| 2026-05-05 05:12 | -10.72131 | -41.24996 | 33846 ft | 417 kts | 336° |
| 2026-05-05 05:13 | -10.66671 | -41.26948 | 33848 ft | 417 kts | 336° |
| 2026-05-05 05:13 | -10.61214 | -41.28906 | 33849 ft | 417 kts | 336° |
| 2026-05-05 05:14 | -10.55756 | -41.30863 | 33851 ft | 417 kts | 336° |
| 2026-05-05 05:14 | -10.50298 | -41.32816 | 33853 ft | 417 kts | 336° |
| 2026-05-05 05:15 | -10.44844 | -41.34767 | 33854 ft | 417 kts | 336° |
| 2026-05-05 05:15 | -10.39384 | -41.36726 | 33855 ft | 417 kts | 336° |
| 2026-05-05 05:16 | -10.33929 | -41.38682 | 33856 ft | 417 kts | 336° |
| 2026-05-05 05:16 | -10.28471 | -41.40632 | 33854 ft | 417 kts | 336° |
| 2026-05-05 05:17 | -10.23018 | -41.42575 | 33854 ft | 416 kts | 336° |
| 2026-05-05 05:17 | -10.17559 | -41.44527 | 33854 ft | 416 kts | 336° |
| 2026-05-05 05:18 | -10.12105 | -41.46479 | 33852 ft | 416 kts | 336° |
| 2026-05-05 05:18 | -10.06654 | -41.48427 | 33851 ft | 416 kts | 336° |
| 2026-05-05 05:19 | -10.01200 | -41.50367 | 33849 ft | 416 kts | 336° |
| 2026-05-05 05:19 | -9.95746 | -41.52306 | 33848 ft | 416 kts | 336° |
| 2026-05-05 05:20 | -9.90291 | -41.54251 | 33846 ft | 416 kts | 336° |
| 2026-05-05 05:20 | -9.84846 | -41.56197 | 33844 ft | 416 kts | 336° |
| 2026-05-05 05:21 | -9.79391 | -41.58138 | 33841 ft | 416 kts | 336° |
| 2026-05-05 05:21 | -9.73943 | -41.60076 | 33839 ft | 416 kts | 336° |
| 2026-05-05 05:22 | -9.68489 | -41.62016 | 33837 ft | 416 kts | 336° |
| 2026-05-05 05:22 | -9.63043 | -41.63958 | 33835 ft | 416 kts | 336° |
| 2026-05-05 05:23 | -9.57594 | -41.65894 | 33834 ft | 416 kts | 336° |
| 2026-05-05 05:23 | -9.52146 | -41.67836 | 33833 ft | 416 kts | 336° |
| 2026-05-05 05:24 | -9.46695 | -41.69773 | 33834 ft | 416 kts | 336° |
| 2026-05-05 05:24 | -9.41251 | -41.71708 | 33832 ft | 416 kts | 336° |
| 2026-05-05 05:25 | -9.35803 | -41.73647 | 33832 ft | 416 kts | 336° |
| 2026-05-05 05:25 | -9.30355 | -41.75585 | 33833 ft | 416 kts | 336° |
| 2026-05-05 05:26 | -9.24903 | -41.77517 | 33832 ft | 416 kts | 336° |
| 2026-05-05 05:26 | -9.19452 | -41.79447 | 33832 ft | 416 kts | 336° |
| 2026-05-05 05:27 | -9.14005 | -41.81379 | 33835 ft | 416 kts | 336° |
| 2026-05-05 05:27 | -9.05839 | -41.84278 | 33835 ft | 416 kts | 336° |
| 2026-05-05 05:28 | -9.00389 | -41.86207 | 33832 ft | 416 kts | 336° |
| 2026-05-05 05:28 | -8.94940 | -41.88141 | 33834 ft | 416 kts | 336° |
| 2026-05-05 05:29 | -8.89493 | -41.90065 | 33834 ft | 416 kts | 336° |
| 2026-05-05 05:29 | -8.84042 | -41.91993 | 33838 ft | 416 kts | 336° |
| 2026-05-05 05:30 | -8.78601 | -41.93923 | 33840 ft | 416 kts | 336° |
| 2026-05-05 05:30 | -8.73154 | -41.95853 | 33842 ft | 415 kts | 336° |
| 2026-05-05 05:31 | -8.67709 | -41.97780 | 33840 ft | 415 kts | 336° |
| 2026-05-05 05:31 | -8.62256 | -41.99701 | 33844 ft | 415 kts | 336° |
| 2026-05-05 05:32 | -8.56811 | -42.01626 | 33842 ft | 415 kts | 336° |
| 2026-05-05 05:32 | -8.51373 | -42.03555 | 33840 ft | 415 kts | 336° |
| 2026-05-05 05:33 | -8.45930 | -42.05486 | 33843 ft | 415 kts | 336° |
| 2026-05-05 05:33 | -8.40485 | -42.07407 | 33845 ft | 416 kts | 336° |
| 2026-05-05 05:34 | -8.35037 | -42.09324 | 33849 ft | 415 kts | 336° |
| 2026-05-05 05:34 | -8.29596 | -42.11250 | 33848 ft | 415 kts | 336° |
| 2026-05-05 05:35 | -8.24156 | -42.13174 | 33844 ft | 415 kts | 336° |
| 2026-05-05 05:35 | -8.18714 | -42.15091 | 33843 ft | 415 kts | 336° |
| 2026-05-05 05:36 | -8.13272 | -42.17010 | 33841 ft | 415 kts | 336° |
| 2026-05-05 05:36 | -8.07832 | -42.18929 | 33842 ft | 415 kts | 336° |
| 2026-05-05 05:37 | -8.02386 | -42.20848 | 33845 ft | 415 kts | 336° |
| 2026-05-05 05:37 | -7.96953 | -42.22767 | 33840 ft | 415 kts | 336° |
| 2026-05-05 05:38 | -7.91512 | -42.24686 | 33843 ft | 415 kts | 336° |
| 2026-05-05 05:38 | -7.86073 | -42.26597 | 33839 ft | 414 kts | 336° |
| 2026-05-05 05:39 | -7.80637 | -42.28514 | 33833 ft | 415 kts | 336° |
| 2026-05-05 05:39 | -7.75203 | -42.30428 | 33829 ft | 414 kts | 336° |
| 2026-05-05 05:40 | -7.69766 | -42.32341 | 33828 ft | 415 kts | 336° |
| 2026-05-05 05:40 | -7.64326 | -42.34253 | 33835 ft | 415 kts | 336° |
| 2026-05-05 05:41 | -7.58891 | -42.36170 | 33832 ft | 415 kts | 336° |
| 2026-05-05 05:41 | -7.53453 | -42.38085 | 33833 ft | 415 kts | 336° |
| 2026-05-05 05:42 | -7.48014 | -42.39992 | 33833 ft | 415 kts | 336° |
| 2026-05-05 05:42 | -7.42577 | -42.41898 | 33834 ft | 415 kts | 336° |
| 2026-05-05 05:43 | -7.37142 | -42.43811 | 33833 ft | 415 kts | 336° |
| 2026-05-05 05:43 | -7.31707 | -42.45733 | 33840 ft | 415 kts | 336° |
| 2026-05-05 05:44 | -7.26280 | -42.47644 | 33839 ft | 414 kts | 336° |
| 2026-05-05 05:44 | -7.20840 | -42.49553 | 33836 ft | 414 kts | 336° |
| 2026-05-05 05:45 | -7.15405 | -42.51452 | 33835 ft | 414 kts | 337° |
| 2026-05-05 05:45 | -7.09967 | -42.53348 | 33832 ft | 414 kts | 336° |
| 2026-05-05 05:46 | -7.04538 | -42.55259 | 33835 ft | 414 kts | 336° |
| 2026-05-05 05:46 | -6.99107 | -42.57172 | 33831 ft | 414 kts | 336° |
| 2026-05-05 05:47 | -6.93674 | -42.59072 | 33833 ft | 414 kts | 336° |
| 2026-05-05 05:47 | -6.88259 | -42.60966 | 33468 ft | 408 kts | 336° |
| 2026-05-05 05:48 | -6.85601 | -42.61896 | 33023 ft | 404 kts | 336° |
| 2026-05-05 05:48 | -6.82960 | -42.62820 | 32563 ft | 401 kts | 336° |
| 2026-05-05 05:48 | -6.80346 | -42.63738 | 32110 ft | 398 kts | 336° |
| 2026-05-05 05:48 | -6.77749 | -42.64654 | 31639 ft | 395 kts | 336° |
| 2026-05-05 05:49 | -6.75164 | -42.65562 | 31181 ft | 392 kts | 336° |
| 2026-05-05 05:49 | -6.72607 | -42.66458 | 30728 ft | 389 kts | 336° |
| 2026-05-05 05:49 | -6.70061 | -42.67350 | 30280 ft | 386 kts | 336° |
| 2026-05-05 05:49 | -6.67539 | -42.68233 | 29831 ft | 384 kts | 336° |
| 2026-05-05 05:50 | -6.65029 | -42.69111 | 29397 ft | 381 kts | 336° |
| 2026-05-05 05:50 | -6.62541 | -42.69982 | 28966 ft | 379 kts | 337° |
| 2026-05-05 05:50 | -6.60065 | -42.70848 | 28514 ft | 376 kts | 337° |
| 2026-05-05 05:50 | -6.57608 | -42.71711 | 28103 ft | 373 kts | 336° |
| 2026-05-05 05:51 | -6.55169 | -42.72568 | 27672 ft | 371 kts | 337° |
| 2026-05-05 05:51 | -6.52744 | -42.73414 | 27243 ft | 368 kts | 337° |
| 2026-05-05 05:51 | -6.50339 | -42.74250 | 26807 ft | 366 kts | 337° |
| 2026-05-05 05:51 | -6.47946 | -42.75084 | 26373 ft | 363 kts | 337° |
| 2026-05-05 05:52 | -6.45571 | -42.75915 | 25939 ft | 361 kts | 337° |
| 2026-05-05 05:52 | -6.43211 | -42.76745 | 25508 ft | 358 kts | 337° |
| 2026-05-05 05:52 | -6.40872 | -42.77564 | 25075 ft | 356 kts | 337° |
| 2026-05-05 05:52 | -6.38542 | -42.78378 | 24628 ft | 354 kts | 337° |
| 2026-05-05 05:53 | -6.36233 | -42.79187 | 24188 ft | 351 kts | 337° |
| 2026-05-05 05:53 | -6.33940 | -42.79994 | 23746 ft | 349 kts | 337° |
| 2026-05-05 05:53 | -6.31658 | -42.80797 | 23311 ft | 346 kts | 337° |
| 2026-05-05 05:53 | -6.29397 | -42.81590 | 22883 ft | 344 kts | 337° |
| 2026-05-05 05:54 | -6.27149 | -42.82379 | 22461 ft | 342 kts | 337° |
| 2026-05-05 05:54 | -6.24910 | -42.83162 | 22056 ft | 340 kts | 337° |
| 2026-05-05 05:54 | -6.22689 | -42.83939 | 21654 ft | 338 kts | 337° |
| 2026-05-05 05:54 | -6.20480 | -42.84712 | 21251 ft | 336 kts | 337° |
| 2026-05-05 05:55 | -6.18284 | -42.85480 | 20855 ft | 334 kts | 337° |
| 2026-05-05 05:55 | -6.16102 | -42.86243 | 20459 ft | 332 kts | 337° |
| 2026-05-05 05:55 | -6.13934 | -42.87001 | 20066 ft | 330 kts | 337° |
| 2026-05-05 05:55 | -6.11776 | -42.87756 | 19683 ft | 328 kts | 337° |
| 2026-05-05 05:56 | -6.09635 | -42.88503 | 19302 ft | 326 kts | 337° |
| 2026-05-05 05:56 | -6.07499 | -42.89248 | 18920 ft | 324 kts | 337° |
| 2026-05-05 05:56 | -6.05379 | -42.89989 | 18538 ft | 322 kts | 337° |
| 2026-05-05 05:56 | -6.03273 | -42.90726 | 18166 ft | 321 kts | 337° |
| 2026-05-05 05:57 | -6.01178 | -42.91459 | 17799 ft | 319 kts | 338° |
| 2026-05-05 05:57 | -5.99091 | -42.92187 | 17428 ft | 317 kts | 338° |
| 2026-05-05 05:57 | -5.97020 | -42.92908 | 17066 ft | 315 kts | 338° |
| 2026-05-05 05:57 | -5.94957 | -42.93626 | 16705 ft | 314 kts | 338° |
| 2026-05-05 05:58 | -5.92903 | -42.94343 | 16365 ft | 312 kts | 338° |
| 2026-05-05 05:58 | -5.90863 | -42.95057 | 16007 ft | 310 kts | 338° |
| 2026-05-05 05:58 | -5.88831 | -42.95768 | 15662 ft | 309 kts | 338° |
| 2026-05-05 05:58 | -5.86812 | -42.96473 | 15326 ft | 307 kts | 338° |
| 2026-05-05 05:59 | -5.84803 | -42.97174 | 14980 ft | 306 kts | 338° |
| 2026-05-05 05:59 | -5.82804 | -42.97872 | 14643 ft | 304 kts | 338° |
| 2026-05-05 05:59 | -5.80814 | -42.98567 | 14308 ft | 303 kts | 338° |
| 2026-05-05 05:59 | -5.78834 | -42.99257 | 13973 ft | 301 kts | 338° |
| 2026-05-05 06:00 | -5.76865 | -42.99945 | 13645 ft | 300 kts | 338° |
| 2026-05-05 06:00 | -5.74904 | -43.00631 | 13313 ft | 298 kts | 338° |
| 2026-05-05 06:00 | -5.72901 | -43.01155 | 12974 ft | 299 kts | 349° |
| 2026-05-05 06:00 | -5.70826 | -43.01202 | 12641 ft | 301 kts | 4° |
| 2026-05-05 06:01 | -5.68781 | -43.00751 | 12298 ft | 302 kts | 18° |
| 2026-05-05 06:01 | -5.66897 | -42.99832 | 11955 ft | 303 kts | 30° |
| 2026-05-05 06:01 | -5.65106 | -42.98725 | 11598 ft | 302 kts | 30° |
| 2026-05-05 06:01 | -5.63324 | -42.97630 | 11253 ft | 300 kts | 30° |
| 2026-05-05 06:02 | -5.61549 | -42.96542 | 10908 ft | 299 kts | 30° |
| 2026-05-05 06:02 | -5.59785 | -42.95466 | 10559 ft | 297 kts | 30° |
| 2026-05-05 06:02 | -5.58028 | -42.94396 | 10212 ft | 295 kts | 30° |
| 2026-05-05 06:02 | -5.56279 | -42.93328 | 9857 ft | 294 kts | 30° |
| 2026-05-05 06:03 | -5.54547 | -42.92267 | 9503 ft | 292 kts | 30° |
| 2026-05-05 06:03 | -5.52823 | -42.91212 | 9139 ft | 290 kts | 30° |
| 2026-05-05 06:03 | -5.51107 | -42.90161 | 8776 ft | 288 kts | 30° |
| 2026-05-05 06:03 | -5.49403 | -42.89118 | 8403 ft | 287 kts | 30° |
| 2026-05-05 06:04 | -5.47707 | -42.88083 | 8025 ft | 285 kts | 30° |
| 2026-05-05 06:04 | -5.46023 | -42.87056 | 7644 ft | 283 kts | 30° |
| 2026-05-05 06:04 | -5.44347 | -42.86034 | 7254 ft | 281 kts | 30° |
| 2026-05-05 06:04 | -5.42683 | -42.85017 | 6871 ft | 280 kts | 30° |
| 2026-05-05 06:05 | -5.41039 | -42.84011 | 6615 ft | 273 kts | 30° |
| 2026-05-05 06:05 | -5.39459 | -42.83042 | 6490 ft | 261 kts | 30° |
| 2026-05-05 06:05 | -5.37951 | -42.82118 | 6363 ft | 249 kts | 30° |
| 2026-05-05 06:05 | -5.36505 | -42.81234 | 6243 ft | 238 kts | 30° |
| 2026-05-05 06:06 | -5.35123 | -42.80391 | 6074 ft | 230 kts | 28° |
| 2026-05-05 06:06 | -5.33674 | -42.79783 | 5790 ft | 224 kts | 11° |
| 2026-05-05 06:06 | -5.32142 | -42.79630 | 5471 ft | 221 kts | 354° |
| 2026-05-05 06:06 | -5.30623 | -42.79791 | 5148 ft | 220 kts | 351° |
| 2026-05-05 06:07 | -5.29106 | -42.79953 | 4842 ft | 219 kts | 352° |
| 2026-05-05 06:07 | -5.27600 | -42.80110 | 4537 ft | 218 kts | 352° |
| 2026-05-05 06:07 | -5.26096 | -42.80267 | 4236 ft | 217 kts | 352° |
| 2026-05-05 06:07 | -5.24598 | -42.80424 | 3941 ft | 216 kts | 352° |
| 2026-05-05 06:08 | -5.23110 | -42.80580 | 3836 ft | 216 kts | 352° |
| 2026-05-05 06:08 | -5.21619 | -42.80736 | 3839 ft | 216 kts | 352° |
| 2026-05-05 06:08 | -5.20105 | -42.80895 | 3506 ft | 223 kts | 352° |
| 2026-05-05 06:08 | -5.18632 | -42.81047 | 3384 ft | 201 kts | 352° |
| 2026-05-05 06:09 | -5.17337 | -42.81173 | 3212 ft | 174 kts | 352° |
| 2026-05-05 06:09 | -5.16166 | -42.81266 | 2770 ft | 168 kts | 353° |
| 2026-05-05 06:09 | -5.14988 | -42.81343 | 2150 ft | 172 kts | 354° |
| 2026-05-05 06:09 | -5.13797 | -42.81472 | 1599 ft | 170 kts | 348° |
| 2026-05-05 06:10 | -5.12682 | -42.81637 | 1366 ft | 152 kts | 351° |
| 2026-05-05 06:10 | -5.11688 | -42.81752 | 1241 ft | 140 kts | 351° |
| 2026-05-05 06:10 | -5.10726 | -42.81861 | 984 ft | 138 kts | 351° |
| 2026-05-05 06:10 | -5.09768 | -42.81963 | 797 ft | 139 kts | 352° |
| 2026-05-05 06:11 | -5.08816 | -42.82067 | 563 ft | 138 kts | 352° |
| 2026-05-05 06:11 | -5.07869 | -42.82175 | 410 ft | 137 kts | 352° |
| 2026-05-05 06:11 | -5.06920 | -42.82279 | 229 ft | 137 kts | 352° |
| 2026-05-05 06:11 | -5.06111 | -42.82365 | 216 ft | 80 kts | 354° |
| 2026-05-05 06:12 | -5.05851 | -42.82395 | 219 ft | 8 kts | 354° |
| 2026-05-05 06:12 | -5.05781 | -42.82402 | 219 ft | 10 kts | 354° |
| 2026-05-05 06:12 | -5.05713 | -42.82409 | 215 ft | 10 kts | 354° |
| 2026-05-05 06:12 | -5.05648 | -42.82414 | 214 ft | 9 kts | 355° |
| 2026-05-05 06:13 | -5.05580 | -42.82420 | 221 ft | 10 kts | 355° |
| 2026-05-05 06:13 | -5.05513 | -42.82425 | 214 ft | 9 kts | 355° |
| 2026-05-05 06:13 | -5.05420 | -42.82434 | 215 ft | 16 kts | 352° |
| 2026-05-05 06:13 | -5.05307 | -42.82446 | 222 ft | 17 kts | 356° |
| 2026-05-05 06:14 | -5.05190 | -42.82459 | 219 ft | 14 kts | 351° |
| 2026-05-05 06:14 | -5.05135 | -42.82465 | 218 ft | 8 kts | 356° |
| 2026-05-05 06:14 | -5.05090 | -42.82455 | 222 ft | 0 kts | 22° |
| 2026-05-05 06:14 | -5.05090 | -42.82454 | 222 ft | 0 kts | 22° |
| 2026-05-05 06:16 | -5.05083 | -42.82451 | 220 ft | 0 kts | 25° |
| 2026-05-05 06:16 | -5.05035 | -42.82450 | 215 ft | 9 kts | 317° |
| 2026-05-05 06:16 | -5.05063 | -42.82472 | 218 ft | 8 kts | 177° |
| 2026-05-05 06:17 | -5.05224 | -42.82453 | 219 ft | 34 kts | 174° |
| 2026-05-05 06:17 | -5.05460 | -42.82431 | 215 ft | 35 kts | 174° |
| 2026-05-05 06:17 | -5.05702 | -42.82410 | 215 ft | 35 kts | 175° |
| 2026-05-05 06:17 | -5.05942 | -42.82381 | 216 ft | 35 kts | 174° |
| 2026-05-05 06:18 | -5.06175 | -42.82356 | 220 ft | 27 kts | 174° |
| 2026-05-05 06:18 | -5.06347 | -42.82338 | 221 ft | 19 kts | 176° |
| 2026-05-05 06:18 | -5.06475 | -42.82325 | 216 ft | 11 kts | 172° |
| 2026-05-05 06:18 | -5.06484 | -42.82324 | 216 ft | 11 kts | 172° |
| 2026-05-05 06:19 | -5.06523 | -42.82319 | 218 ft | 2 kts | 172° |
| 2026-05-05 06:19 | -5.06561 | -42.82313 | 216 ft | 7 kts | 172° |
| 2026-05-05 06:19 | -5.06598 | -42.82291 | 218 ft | 7 kts | 119° |
| 2026-05-05 06:20 | -5.06589 | -42.82238 | 220 ft | 8 kts | 51° |
| 2026-05-05 06:20 | -5.06547 | -42.82204 | 216 ft | 8 kts | 30° |
| 2026-05-05 06:20 | -5.06499 | -42.82198 | 216 ft | 7 kts | 356° |
| 2026-05-05 06:20 | -5.06447 | -42.82204 | 219 ft | 7 kts | 352° |
| 2026-05-05 06:21 | -5.06403 | -42.82200 | 215 ft | 6 kts | 44° |
| 2026-05-05 06:21 | -5.06411 | -42.82169 | 223 ft | 4 kts | 124° |
| 2026-05-05 06:21 | -5.06413 | -42.82166 | 221 ft | 0 kts | 123° |